Forbes Field
KFOE : now visible

Airfield :











YOU CAN JOIN US ON...

 
LOGIN :

Register | Disclaimer

   EN    FR    IT 

 









Legend :    VFR   Marginal VFR   IFR   Intensive IFR   Very Intensive IFR
Visi :
Ceiling :
>= 8 km
>= 3000ft
5 to 8 km
1000 to 3000 ft
1500m to 5 km
500 to 1000 ft
800 to 1500m
200 to 500 ft
< 800m
< 200 ft
Symbols :   Thunderstorms  Fog  Heavy snow  Heavy precipitations  Wind > 20 kt






- Airport Elevation : 1078 ft
- IATA code : FOE


KFOE - Forbes Field

CURRENT METAR :
  • 080753Z AUTO 00000KT 2 1/2SM BR CLR 12/10 A2974 RMK AO2 SLP065 T01170100

EXPIRED METARs :
  • 080712Z AUTO 15003KT 2 1/2SM HZ CLR 13/11 A2975 RMK AO2 T01330106
  • 080653Z AUTO 00000KT 3SM HZ FEW028 14/11 A2975 RMK AO2 SLP068 T01390111
  • 080637Z AUTO 00000KT 3SM HZ SCT022 14/11 A2976 RMK AO2 T01440111
  • 080621Z AUTO 00000KT 3SM HZ BKN023 15/12 A2976 RMK AO2 T01500117
  • 080553Z AUTO 00000KT 5SM HZ CLR 15/12 A2976 RMK AO2 SLP071 T01500117 10256 20139 402830139 53003

TAF KFOE
Valid from the 08 at 07:00 until the 09 at 06:00 UTC


080657Z 0807/0906 VRB05KT 4SM FU SKC
FM081500 27010KT P6SM FEW250
FM082000 35017G27KT P6SM FEW250



MET'MAP, your aeronautical weather chart ! - Copyright ORBIFLY December 2007 - Disclaimer

ORBIFLY MET'MAP TEAM :

Programming & Development : Alexandra Zaïnal
Concept & original design : Baudouin d'Aumeries
Assistance for programming : Marc-Olivier Méhu
Technical & hardware support : Manuel Goepfert

Contact : metmap@orbifly.com




SOURCES & CREDITS :

   NOAA       Earth
Advisory